sensor_id;sensor_type;location;lat;lon;timestamp;temperature;humidity
3602;DHT22;1815;50.950;6.920;2023-02-19T00:01:00;12.90;99.90
3602;DHT22;1815;50.950;6.920;2023-02-19T00:03:26;12.90;99.90
3602;DHT22;1815;50.950;6.920;2023-02-19T00:05:52;12.90;99.90
3602;DHT22;1815;50.950;6.920;2023-02-19T00:08:18;12.90;99.90
3602;DHT22;1815;50.950;6.920;2023-02-19T00:10:44;12.90;99.90
3602;DHT22;1815;50.950;6.920;2023-02-19T00:13:09;12.90;99.90
3602;DHT22;1815;50.950;6.920;2023-02-19T00:15:35;12.90;99.90
3602;DHT22;1815;50.950;6.920;2023-02-19T00:18:01;13.00;99.90
3602;DHT22;1815;50.950;6.920;2023-02-19T00:20:26;12.90;99.90
3602;DHT22;1815;50.950;6.920;2023-02-19T00:22:52;12.90;99.90
3602;DHT22;1815;50.950;6.920;2023-02-19T00:25:18;12.90;99.90
3602;DHT22;1815;50.950;6.920;2023-02-19T00:27:43;12.90;99.90
3602;DHT22;1815;50.950;6.920;2023-02-19T00:30:09;12.90;99.90
3602;DHT22;1815;50.950;6.920;2023-02-19T00:32:35;12.80;99.90
3602;DHT22;1815;50.950;6.920;2023-02-19T00:35:01;12.90;99.90
3602;DHT22;1815;50.950;6.920;2023-02-19T00:37:27;12.80;99.90
3602;DHT22;1815;50.950;6.920;2023-02-19T00:39:52;12.80;99.90
3602;DHT22;1815;50.950;6.920;2023-02-19T00:42:18;12.80;99.90
3602;DHT22;1815;50.950;6.920;2023-02-19T00:44:45;12.80;99.90
3602;DHT22;1815;50.950;6.920;2023-02-19T00:47:11;12.80;99.90
3602;DHT22;1815;50.950;6.920;2023-02-19T00:49:38;12.80;99.90
3602;DHT22;1815;50.950;6.920;2023-02-19T00:52:04;12.80;99.90
3602;DHT22;1815;50.950;6.920;2023-02-19T00:54:29;12.80;99.90
3602;DHT22;1815;50.950;6.920;2023-02-19T00:56:57;12.80;99.90
3602;DHT22;1815;50.950;6.920;2023-02-19T00:59:23;12.80;99.90
3602;DHT22;1815;50.950;6.920;2023-02-19T01:01:48;12.80;99.90
3602;DHT22;1815;50.950;6.920;2023-02-19T01:04:14;12.80;99.90
3602;DHT22;1815;50.950;6.920;2023-02-19T01:06:41;12.80;99.90
3602;DHT22;1815;50.950;6.920;2023-02-19T01:09:06;12.80;99.90
3602;DHT22;1815;50.950;6.920;2023-02-19T01:11:32;12.80;99.90
3602;DHT22;1815;50.950;6.920;2023-02-19T01:13:59;12.80;99.90
3602;DHT22;1815;50.950;6.920;2023-02-19T01:16:25;12.80;99.90
3602;DHT22;1815;50.950;6.920;2023-02-19T01:18:52;12.80;99.90
3602;DHT22;1815;50.950;6.920;2023-02-19T01:21:21;12.80;99.90
3602;DHT22;1815;50.950;6.920;2023-02-19T01:23:49;12.80;99.90
3602;DHT22;1815;50.950;6.920;2023-02-19T01:26:18;12.80;99.90
3602;DHT22;1815;50.950;6.920;2023-02-19T01:28:45;12.80;99.90
3602;DHT22;1815;50.950;6.920;2023-02-19T01:31:15;12.80;99.90
3602;DHT22;1815;50.950;6.920;2023-02-19T01:33:49;12.90;99.90
3602;DHT22;1815;50.950;6.920;2023-02-19T01:36:15;12.80;99.90
3602;DHT22;1815;50.950;6.920;2023-02-19T01:38:42;12.80;99.90
3602;DHT22;1815;50.950;6.920;2023-02-19T01:41:11;12.80;99.90
3602;DHT22;1815;50.950;6.920;2023-02-19T01:46:38;12.80;99.90
3602;DHT22;1815;50.950;6.920;2023-02-19T01:49:08;12.80;99.90
3602;DHT22;1815;50.950;6.920;2023-02-19T01:51:38;12.80;99.90
3602;DHT22;1815;50.950;6.920;2023-02-19T01:54:07;12.90;99.90
3602;DHT22;1815;50.950;6.920;2023-02-19T01:56:35;12.90;99.90
3602;DHT22;1815;50.950;6.920;2023-02-19T01:59:03;12.90;99.90
3602;DHT22;1815;50.950;6.920;2023-02-19T02:01:30;12.90;99.90
3602;DHT22;1815;50.950;6.920;2023-02-19T02:03:56;12.90;99.90
3602;DHT22;1815;50.950;6.920;2023-02-19T02:06:23;12.90;99.90
3602;DHT22;1815;50.950;6.920;2023-02-19T02:08:50;12.90;99.90
3602;DHT22;1815;50.950;6.920;2023-02-19T02:11:37;13.00;99.90
3602;DHT22;1815;50.950;6.920;2023-02-19T02:14:04;12.90;99.90
3602;DHT22;1815;50.950;6.920;2023-02-19T02:24:36;13.00;99.90
3602;DHT22;1815;50.950;6.920;2023-02-19T02:27:37;13.00;99.90
3602;DHT22;1815;50.950;6.920;2023-02-19T02:32:55;13.00;99.90
3602;DHT22;1815;50.950;6.920;2023-02-19T02:35:26;12.90;99.90
3602;DHT22;1815;50.950;6.920;2023-02-19T02:37:56;12.90;99.90
3602;DHT22;1815;50.950;6.920;2023-02-19T02:40:25;13.00;99.90
3602;DHT22;1815;50.950;6.920;2023-02-19T02:42:50;13.00;99.90
3602;DHT22;1815;50.950;6.920;2023-02-19T02:50:45;12.90;99.90
3602;DHT22;1815;50.950;6.920;2023-02-19T02:53:16;12.90;99.90
3602;DHT22;1815;50.950;6.920;2023-02-19T02:56:03;12.80;99.90
3602;DHT22;1815;50.950;6.920;2023-02-19T02:58:33;12.80;99.90
3602;DHT22;1815;50.950;6.920;2023-02-19T03:01:06;12.80;99.90
3602;DHT22;1815;50.950;6.920;2023-02-19T03:03:57;12.80;99.90
3602;DHT22;1815;50.950;6.920;2023-02-19T03:06:28;12.80;99.90
3602;DHT22;1815;50.950;6.920;2023-02-19T03:09:10;12.80;99.90
3602;DHT22;1815;50.950;6.920;2023-02-19T03:11:40;12.80;99.90
3602;DHT22;1815;50.950;6.920;2023-02-19T03:14:41;12.80;99.90
3602;DHT22;1815;50.950;6.920;2023-02-19T03:17:33;12.80;99.90
3602;DHT22;1815;50.950;6.920;2023-02-19T03:20:22;12.80;99.90
3602;DHT22;1815;50.950;6.920;2023-02-19T03:22:50;12.80;99.90
3602;DHT22;1815;50.950;6.920;2023-02-19T03:25:19;12.80;99.90
3602;DHT22;1815;50.950;6.920;2023-02-19T03:28:08;12.80;99.90
3602;DHT22;1815;50.950;6.920;2023-02-19T03:30:40;12.70;99.90
3602;DHT22;1815;50.950;6.920;2023-02-19T03:33:28;12.80;99.90
3602;DHT22;1815;50.950;6.920;2023-02-19T03:35:58;12.70;99.90
3602;DHT22;1815;50.950;6.920;2023-02-19T03:38:41;12.80;99.90
3602;DHT22;1815;50.950;6.920;2023-02-19T03:41:20;12.80;99.90
3602;DHT22;1815;50.950;6.920;2023-02-19T03:43:55;12.80;99.90
3602;DHT22;1815;50.950;6.920;2023-02-19T03:46:47;12.80;99.90
3602;DHT22;1815;50.950;6.920;2023-02-19T03:53:02;12.80;99.90
3602;DHT22;1815;50.950;6.920;2023-02-19T03:58:21;12.70;99.90
3602;DHT22;1815;50.950;6.920;2023-02-19T04:01:06;12.80;99.90
3602;DHT22;1815;50.950;6.920;2023-02-19T04:03:48;12.80;99.90
3602;DHT22;1815;50.950;6.920;2023-02-19T04:06:22;12.70;99.90
3602;DHT22;1815;50.950;6.920;2023-02-19T04:08:54;12.80;99.90
3602;DHT22;1815;50.950;6.920;2023-02-19T04:11:22;12.80;99.90
3602;DHT22;1815;50.950;6.920;2023-02-19T04:14:12;12.80;99.90
3602;DHT22;1815;50.950;6.920;2023-02-19T04:16:40;12.80;99.90
3602;DHT22;1815;50.950;6.920;2023-02-19T04:19:11;12.80;99.90
3602;DHT22;1815;50.950;6.920;2023-02-19T04:21:39;12.70;99.90
3602;DHT22;1815;50.950;6.920;2023-02-19T04:24:21;12.70;99.90
3602;DHT22;1815;50.950;6.920;2023-02-19T04:26:48;12.70;99.90
3602;DHT22;1815;50.950;6.920;2023-02-19T04:29:14;12.70;99.90
3602;DHT22;1815;50.950;6.920;2023-02-19T04:31:39;12.70;99.90
3602;DHT22;1815;50.950;6.920;2023-02-19T04:34:05;12.60;99.90
3602;DHT22;1815;50.950;6.920;2023-02-19T04:36:31;12.60;99.90
3602;DHT22;1815;50.950;6.920;2023-02-19T04:38:58;12.60;99.90
3602;DHT22;1815;50.950;6.920;2023-02-19T04:41:24;12.60;99.90
3602;DHT22;1815;50.950;6.920;2023-02-19T04:43:49;12.60;99.90
3602;DHT22;1815;50.950;6.920;2023-02-19T04:46:15;12.50;99.90
3602;DHT22;1815;50.950;6.920;2023-02-19T04:48:40;12.50;99.90
3602;DHT22;1815;50.950;6.920;2023-02-19T04:51:09;12.50;99.90
3602;DHT22;1815;50.950;6.920;2023-02-19T04:53:35;12.50;99.90
3602;DHT22;1815;50.950;6.920;2023-02-19T04:56:13;12.40;99.90
3602;DHT22;1815;50.950;6.920;2023-02-19T04:58:39;12.40;99.90
3602;DHT22;1815;50.950;6.920;2023-02-19T05:01:06;12.30;99.90
3602;DHT22;1815;50.950;6.920;2023-02-19T05:03:32;12.30;99.90
3602;DHT22;1815;50.950;6.920;2023-02-19T05:06:04;12.30;99.90
3602;DHT22;1815;50.950;6.920;2023-02-19T05:08:30;12.20;99.90
3602;DHT22;1815;50.950;6.920;2023-02-19T05:10:59;12.10;99.90
3602;DHT22;1815;50.950;6.920;2023-02-19T05:13:27;12.20;99.90
3602;DHT22;1815;50.950;6.920;2023-02-19T05:15:57;12.10;99.90
3602;DHT22;1815;50.950;6.920;2023-02-19T05:18:23;12.10;99.90
3602;DHT22;1815;50.950;6.920;2023-02-19T05:20:50;12.10;99.90
3602;DHT22;1815;50.950;6.920;2023-02-19T05:23:16;12.00;99.90
3602;DHT22;1815;50.950;6.920;2023-02-19T05:25:42;12.00;99.90
3602;DHT22;1815;50.950;6.920;2023-02-19T05:28:08;12.00;99.90
3602;DHT22;1815;50.950;6.920;2023-02-19T05:33:13;11.90;99.90
3602;DHT22;1815;50.950;6.920;2023-02-19T05:35:43;11.90;99.90
3602;DHT22;1815;50.950;6.920;2023-02-19T05:38:09;11.90;99.90
3602;DHT22;1815;50.950;6.920;2023-02-19T05:40:35;11.90;99.90
3602;DHT22;1815;50.950;6.920;2023-02-19T05:43:01;11.80;99.90
3602;DHT22;1815;50.950;6.920;2023-02-19T05:45:27;11.90;99.90
3602;DHT22;1815;50.950;6.920;2023-02-19T05:47:53;11.90;99.90
3602;DHT22;1815;50.950;6.920;2023-02-19T05:50:18;11.90;99.90
3602;DHT22;1815;50.950;6.920;2023-02-19T05:52:44;11.90;99.90
3602;DHT22;1815;50.950;6.920;2023-02-19T05:55:10;11.90;99.90
3602;DHT22;1815;50.950;6.920;2023-02-19T05:57:40;11.80;99.90
3602;DHT22;1815;50.950;6.920;2023-02-19T06:00:10;11.80;99.90
3602;DHT22;1815;50.950;6.920;2023-02-19T06:02:37;11.80;99.90
3602;DHT22;1815;50.950;6.920;2023-02-19T06:05:04;11.80;99.90
3602;DHT22;1815;50.950;6.920;2023-02-19T06:07:31;11.80;99.90
3602;DHT22;1815;50.950;6.920;2023-02-19T06:09:57;11.80;99.90
3602;DHT22;1815;50.950;6.920;2023-02-19T06:12:23;11.80;99.90
3602;DHT22;1815;50.950;6.920;2023-02-19T06:14:48;11.80;99.90
3602;DHT22;1815;50.950;6.920;2023-02-19T06:17:14;11.80;99.90
3602;DHT22;1815;50.950;6.920;2023-02-19T06:19:40;11.70;99.90
3602;DHT22;1815;50.950;6.920;2023-02-19T06:22:05;11.80;99.90
3602;DHT22;1815;50.950;6.920;2023-02-19T06:24:31;11.80;99.90
3602;DHT22;1815;50.950;6.920;2023-02-19T06:26:57;11.70;99.90
3602;DHT22;1815;50.950;6.920;2023-02-19T06:29:23;11.70;99.90
3602;DHT22;1815;50.950;6.920;2023-02-19T06:31:49;11.70;99.90
3602;DHT22;1815;50.950;6.920;2023-02-19T06:34:15;11.70;99.90
3602;DHT22;1815;50.950;6.920;2023-02-19T06:36:41;11.70;99.90
3602;DHT22;1815;50.950;6.920;2023-02-19T06:39:08;11.70;99.90
3602;DHT22;1815;50.950;6.920;2023-02-19T06:41:34;11.60;99.90
3602;DHT22;1815;50.950;6.920;2023-02-19T06:43:59;11.60;99.90
3602;DHT22;1815;50.950;6.920;2023-02-19T06:46:26;11.70;99.90
3602;DHT22;1815;50.950;6.920;2023-02-19T06:48:52;11.60;99.90
3602;DHT22;1815;50.950;6.920;2023-02-19T06:51:18;11.60;99.90
3602;DHT22;1815;50.950;6.920;2023-02-19T06:53:48;11.60;99.90
3602;DHT22;1815;50.950;6.920;2023-02-19T06:56:23;11.60;99.90
3602;DHT22;1815;50.950;6.920;2023-02-19T06:58:50;11.60;99.90
3602;DHT22;1815;50.950;6.920;2023-02-19T07:01:16;11.60;99.90
3602;DHT22;1815;50.950;6.920;2023-02-19T07:03:41;11.60;99.90
3602;DHT22;1815;50.950;6.920;2023-02-19T07:06:07;11.60;99.90
3602;DHT22;1815;50.950;6.920;2023-02-19T07:08:33;11.60;99.90
3602;DHT22;1815;50.950;6.920;2023-02-19T07:10:58;11.60;99.90
3602;DHT22;1815;50.950;6.920;2023-02-19T07:13:25;11.60;99.90
3602;DHT22;1815;50.950;6.920;2023-02-19T07:15:56;11.60;99.90
3602;DHT22;1815;50.950;6.920;2023-02-19T07:18:22;11.60;99.90
3602;DHT22;1815;50.950;6.920;2023-02-19T07:20:48;11.60;99.90
3602;DHT22;1815;50.950;6.920;2023-02-19T07:23:14;11.60;99.90
3602;DHT22;1815;50.950;6.920;2023-02-19T07:25:39;11.60;99.90
3602;DHT22;1815;50.950;6.920;2023-02-19T07:28:06;11.50;99.90
3602;DHT22;1815;50.950;6.920;2023-02-19T07:30:32;11.50;99.90
3602;DHT22;1815;50.950;6.920;2023-02-19T07:32:57;11.50;99.90
3602;DHT22;1815;50.950;6.920;2023-02-19T07:35:23;11.50;99.90
3602;DHT22;1815;50.950;6.920;2023-02-19T07:37:49;11.50;99.90
3602;DHT22;1815;50.950;6.920;2023-02-19T07:40:14;11.50;99.90
3602;DHT22;1815;50.950;6.920;2023-02-19T07:42:40;11.50;99.90
3602;DHT22;1815;50.950;6.920;2023-02-19T07:45:06;11.50;99.90
3602;DHT22;1815;50.950;6.920;2023-02-19T07:47:32;11.50;99.90
3602;DHT22;1815;50.950;6.920;2023-02-19T07:49:58;11.50;99.90
3602;DHT22;1815;50.950;6.920;2023-02-19T07:52:23;11.50;99.90
3602;DHT22;1815;50.950;6.920;2023-02-19T07:54:49;11.50;99.90
3602;DHT22;1815;50.950;6.920;2023-02-19T07:57:15;11.60;99.90
3602;DHT22;1815;50.950;6.920;2023-02-19T07:59:40;11.60;99.90
3602;DHT22;1815;50.950;6.920;2023-02-19T08:02:17;11.60;99.90
3602;DHT22;1815;50.950;6.920;2023-02-19T08:05:03;11.70;99.90
3602;DHT22;1815;50.950;6.920;2023-02-19T08:07:33;11.80;99.90
3602;DHT22;1815;50.950;6.920;2023-02-19T08:09:59;11.80;99.90
3602;DHT22;1815;50.950;6.920;2023-02-19T08:12:43;11.80;99.90
3602;DHT22;1815;50.950;6.920;2023-02-19T08:15:27;11.90;99.90
3602;DHT22;1815;50.950;6.920;2023-02-19T08:17:52;11.90;99.90
3602;DHT22;1815;50.950;6.920;2023-02-19T08:20:18;11.90;99.90
3602;DHT22;1815;50.950;6.920;2023-02-19T08:22:44;11.90;99.90
3602;DHT22;1815;50.950;6.920;2023-02-19T08:25:10;11.90;99.90
3602;DHT22;1815;50.950;6.920;2023-02-19T08:27:35;11.90;99.90
3602;DHT22;1815;50.950;6.920;2023-02-19T08:30:02;11.90;99.90
3602;DHT22;1815;50.950;6.920;2023-02-19T08:32:27;11.90;99.90
3602;DHT22;1815;50.950;6.920;2023-02-19T08:34:53;12.00;99.90
3602;DHT22;1815;50.950;6.920;2023-02-19T08:37:19;12.00;99.90
3602;DHT22;1815;50.950;6.920;2023-02-19T08:39:44;12.00;99.90
3602;DHT22;1815;50.950;6.920;2023-02-19T08:42:10;12.00;99.90
3602;DHT22;1815;50.950;6.920;2023-02-19T08:44:37;12.00;99.90
3602;DHT22;1815;50.950;6.920;2023-02-19T08:47:03;12.00;99.90
3602;DHT22;1815;50.950;6.920;2023-02-19T08:49:29;12.00;99.90
3602;DHT22;1815;50.950;6.920;2023-02-19T08:51:55;12.00;99.90
3602;DHT22;1815;50.950;6.920;2023-02-19T08:54:20;12.00;99.90
3602;DHT22;1815;50.950;6.920;2023-02-19T08:56:46;12.00;99.90
3602;DHT22;1815;50.950;6.920;2023-02-19T08:59:12;12.10;99.90
3602;DHT22;1815;50.950;6.920;2023-02-19T09:01:37;12.10;99.90
3602;DHT22;1815;50.950;6.920;2023-02-19T09:04:03;12.20;99.90
3602;DHT22;1815;50.950;6.920;2023-02-19T09:06:29;12.40;99.90
3602;DHT22;1815;50.950;6.920;2023-02-19T09:08:55;12.60;99.90
3602;DHT22;1815;50.950;6.920;2023-02-19T09:11:20;12.70;99.90
3602;DHT22;1815;50.950;6.920;2023-02-19T09:13:46;12.80;99.90
3602;DHT22;1815;50.950;6.920;2023-02-19T09:16:12;12.90;99.90
3602;DHT22;1815;50.950;6.920;2023-02-19T09:18:38;12.90;99.90
3602;DHT22;1815;50.950;6.920;2023-02-19T09:21:05;13.00;99.90
3602;DHT22;1815;50.950;6.920;2023-02-19T09:23:35;13.00;99.90
3602;DHT22;1815;50.950;6.920;2023-02-19T09:26:02;13.00;99.90
3602;DHT22;1815;50.950;6.920;2023-02-19T09:28:31;13.10;99.90
3602;DHT22;1815;50.950;6.920;2023-02-19T09:31:05;13.10;99.90
3602;DHT22;1815;50.950;6.920;2023-02-19T09:33:32;13.00;99.90
3602;DHT22;1815;50.950;6.920;2023-02-19T09:35:58;13.00;99.90
3602;DHT22;1815;50.950;6.920;2023-02-19T09:38:25;13.00;99.90
3602;DHT22;1815;50.950;6.920;2023-02-19T09:40:51;12.90;99.90
3602;DHT22;1815;50.950;6.920;2023-02-19T09:43:20;12.90;99.90
3602;DHT22;1815;50.950;6.920;2023-02-19T09:45:47;12.90;99.90
3602;DHT22;1815;50.950;6.920;2023-02-19T09:48:14;12.80;99.90
3602;DHT22;1815;50.950;6.920;2023-02-19T09:50:46;12.70;99.90
3602;DHT22;1815;50.950;6.920;2023-02-19T09:53:16;12.70;99.90
3602;DHT22;1815;50.950;6.920;2023-02-19T09:55:44;12.70;99.90
3602;DHT22;1815;50.950;6.920;2023-02-19T09:58:31;12.70;99.90
3602;DHT22;1815;50.950;6.920;2023-02-19T10:01:01;12.70;99.90
3602;DHT22;1815;50.950;6.920;2023-02-19T10:03:47;12.70;99.90
3602;DHT22;1815;50.950;6.920;2023-02-19T10:06:22;12.70;99.90
3602;DHT22;1815;50.950;6.920;2023-02-19T10:08:54;12.60;99.90
3602;DHT22;1815;50.950;6.920;2023-02-19T10:11:21;12.60;99.90
3602;DHT22;1815;50.950;6.920;2023-02-19T10:14:02;12.60;99.90
3602;DHT22;1815;50.950;6.920;2023-02-19T10:16:28;12.60;99.90
3602;DHT22;1815;50.950;6.920;2023-02-19T10:18:54;12.60;99.90
3602;DHT22;1815;50.950;6.920;2023-02-19T10:21:24;12.70;99.90
3602;DHT22;1815;50.950;6.920;2023-02-19T10:24:00;12.80;99.90
3602;DHT22;1815;50.950;6.920;2023-02-19T10:26:27;12.80;99.90
3602;DHT22;1815;50.950;6.920;2023-02-19T10:28:55;12.80;99.90
3602;DHT22;1815;50.950;6.920;2023-02-19T10:31:23;12.90;99.90
3602;DHT22;1815;50.950;6.920;2023-02-19T10:33:57;12.90;99.90
3602;DHT22;1815;50.950;6.920;2023-02-19T10:36:42;12.90;99.90
3602;DHT22;1815;50.950;6.920;2023-02-19T10:39:37;12.80;99.90
3602;DHT22;1815;50.950;6.920;2023-02-19T10:42:04;12.80;99.90
3602;DHT22;1815;50.950;6.920;2023-02-19T10:44:37;12.80;99.90
3602;DHT22;1815;50.950;6.920;2023-02-19T10:47:06;12.80;99.90
3602;DHT22;1815;50.950;6.920;2023-02-19T10:49:38;12.80;99.90
3602;DHT22;1815;50.950;6.920;2023-02-19T10:52:20;12.80;99.90
3602;DHT22;1815;50.950;6.920;2023-02-19T10:54:51;12.80;99.90
3602;DHT22;1815;50.950;6.920;2023-02-19T10:59:53;12.90;99.90
3602;DHT22;1815;50.950;6.920;2023-02-19T11:02:23;12.90;99.90
3602;DHT22;1815;50.950;6.920;2023-02-19T11:07:35;12.90;99.90
3602;DHT22;1815;50.950;6.920;2023-02-19T11:10:03;12.90;99.90
3602;DHT22;1815;50.950;6.920;2023-02-19T11:12:31;13.00;99.90
3602;DHT22;1815;50.950;6.920;2023-02-19T11:15:18;13.00;99.90
3602;DHT22;1815;50.950;6.920;2023-02-19T11:17:44;13.10;99.90
3602;DHT22;1815;50.950;6.920;2023-02-19T11:20:18;13.20;99.90
3602;DHT22;1815;50.950;6.920;2023-02-19T11:22:44;13.30;99.90
3602;DHT22;1815;50.950;6.920;2023-02-19T11:28:02;13.40;99.90
3602;DHT22;1815;50.950;6.920;2023-02-19T11:30:33;13.50;99.90
3602;DHT22;1815;50.950;6.920;2023-02-19T11:35:48;13.70;99.90
3602;DHT22;1815;50.950;6.920;2023-02-19T11:38:16;13.90;99.90
3602;DHT22;1815;50.950;6.920;2023-02-19T11:44:02;14.00;99.90
3602;DHT22;1815;50.950;6.920;2023-02-19T11:49:28;14.00;99.90
3602;DHT22;1815;50.950;6.920;2023-02-19T11:57:52;13.90;99.90
3602;DHT22;1815;50.950;6.920;2023-02-19T12:06:13;13.90;99.90
3602;DHT22;1815;50.950;6.920;2023-02-19T12:15:05;14.30;99.90
3602;DHT22;1815;50.950;6.920;2023-02-19T12:25:29;14.60;99.90
3602;DHT22;1815;50.950;6.920;2023-02-19T12:34:01;15.10;99.90
3602;DHT22;1815;50.950;6.920;2023-02-19T12:39:44;15.40;99.90
3602;DHT22;1815;50.950;6.920;2023-02-19T12:45:05;15.70;99.90
3602;DHT22;1815;50.950;6.920;2023-02-19T12:47:38;15.90;99.90
3602;DHT22;1815;50.950;6.920;2023-02-19T12:50:24;16.00;99.90
3602;DHT22;1815;50.950;6.920;2023-02-19T12:52:56;16.10;99.90
3602;DHT22;1815;50.950;6.920;2023-02-19T12:55:31;16.00;99.90
3602;DHT22;1815;50.950;6.920;2023-02-19T12:58:01;16.00;99.90
3602;DHT22;1815;50.950;6.920;2023-02-19T13:00:38;15.90;99.90
3602;DHT22;1815;50.950;6.920;2023-02-19T13:03:19;15.80;99.90
3602;DHT22;1815;50.950;6.920;2023-02-19T13:06:19;15.60;99.90
3602;DHT22;1815;50.950;6.920;2023-02-19T13:08:59;15.50;99.90
3602;DHT22;1815;50.950;6.920;2023-02-19T13:16:53;15.00;99.90
3602;DHT22;1815;50.950;6.920;2023-02-19T13:19:21;14.80;99.90
3602;DHT22;1815;50.950;6.920;2023-02-19T13:21:55;14.60;99.90
3602;DHT22;1815;50.950;6.920;2023-02-19T13:24:41;14.40;99.90
3602;DHT22;1815;50.950;6.920;2023-02-19T13:33:19;14.10;99.90
3602;DHT22;1815;50.950;6.920;2023-02-19T13:36:00;14.00;99.90
3602;DHT22;1815;50.950;6.920;2023-02-19T13:38:50;13.90;99.90
3602;DHT22;1815;50.950;6.920;2023-02-19T13:41:32;13.80;99.90
3602;DHT22;1815;50.950;6.920;2023-02-19T13:44:04;13.80;99.90
3602;DHT22;1815;50.950;6.920;2023-02-19T13:46:41;13.70;99.90
3602;DHT22;1815;50.950;6.920;2023-02-19T13:51:54;13.60;99.90
3602;DHT22;1815;50.950;6.920;2023-02-19T13:54:32;13.60;99.90
3602;DHT22;1815;50.950;6.920;2023-02-19T13:57:24;13.60;99.90
3602;DHT22;1815;50.950;6.920;2023-02-19T13:59:52;13.60;99.90
3602;DHT22;1815;50.950;6.920;2023-02-19T14:14:50;13.60;99.90
3602;DHT22;1815;50.950;6.920;2023-02-19T14:31:14;13.70;99.90
3602;DHT22;1815;50.950;6.920;2023-02-19T14:33:49;13.70;99.90
3602;DHT22;1815;50.950;6.920;2023-02-19T14:39:24;13.70;99.90
3602;DHT22;1815;50.950;6.920;2023-02-19T14:41:56;13.70;99.90
3602;DHT22;1815;50.950;6.920;2023-02-19T14:44:31;13.70;99.90
3602;DHT22;1815;50.950;6.920;2023-02-19T14:47:06;13.60;99.90
3602;DHT22;1815;50.950;6.920;2023-02-19T14:50:11;13.60;99.90
3602;DHT22;1815;50.950;6.920;2023-02-19T14:53:00;13.40;99.90
3602;DHT22;1815;50.950;6.920;2023-02-19T14:55:33;13.30;99.90
3602;DHT22;1815;50.950;6.920;2023-02-19T14:58:05;13.20;99.90
3602;DHT22;1815;50.950;6.920;2023-02-19T15:00:38;13.10;99.90
3602;DHT22;1815;50.950;6.920;2023-02-19T15:03:05;13.00;99.90
3602;DHT22;1815;50.950;6.920;2023-02-19T15:05:35;13.00;99.90
3602;DHT22;1815;50.950;6.920;2023-02-19T15:08:08;12.90;99.90
3602;DHT22;1815;50.950;6.920;2023-02-19T15:10:34;12.80;99.90
3602;DHT22;1815;50.950;6.920;2023-02-19T15:13:06;12.80;99.90
3602;DHT22;1815;50.950;6.920;2023-02-19T15:15:41;12.70;99.90
3602;DHT22;1815;50.950;6.920;2023-02-19T15:18:15;12.70;99.90
3602;DHT22;1815;50.950;6.920;2023-02-19T15:20:42;12.70;99.90
3602;DHT22;1815;50.950;6.920;2023-02-19T15:23:17;12.70;99.90
3602;DHT22;1815;50.950;6.920;2023-02-19T15:25:44;12.70;99.90
3602;DHT22;1815;50.950;6.920;2023-02-19T15:30:44;12.70;99.90
3602;DHT22;1815;50.950;6.920;2023-02-19T15:33:15;12.70;99.90
3602;DHT22;1815;50.950;6.920;2023-02-19T15:35:47;12.60;99.90
3602;DHT22;1815;50.950;6.920;2023-02-19T15:38:14;12.60;99.90
3602;DHT22;1815;50.950;6.920;2023-02-19T15:40:43;12.60;99.90
3602;DHT22;1815;50.950;6.920;2023-02-19T15:43:39;12.60;99.90
3602;DHT22;1815;50.950;6.920;2023-02-19T15:46:19;12.60;99.90
3602;DHT22;1815;50.950;6.920;2023-02-19T15:51:26;12.60;99.90
3602;DHT22;1815;50.950;6.920;2023-02-19T15:53:59;12.60;99.90
3602;DHT22;1815;50.950;6.920;2023-02-19T15:56:30;12.60;99.90
3602;DHT22;1815;50.950;6.920;2023-02-19T15:59:15;12.60;99.90
3602;DHT22;1815;50.950;6.920;2023-02-19T16:01:44;12.50;99.90
3602;DHT22;1815;50.950;6.920;2023-02-19T16:04:12;12.50;99.90
3602;DHT22;1815;50.950;6.920;2023-02-19T16:06:58;12.50;99.90
3602;DHT22;1815;50.950;6.920;2023-02-19T16:09:33;12.50;99.90
3602;DHT22;1815;50.950;6.920;2023-02-19T16:12:02;12.50;99.90
3602;DHT22;1815;50.950;6.920;2023-02-19T16:14:33;12.50;99.90
3602;DHT22;1815;50.950;6.920;2023-02-19T16:20:04;12.50;99.90
3602;DHT22;1815;50.950;6.920;2023-02-19T16:22:37;12.50;99.90
3602;DHT22;1815;50.950;6.920;2023-02-19T16:25:05;12.50;99.90
3602;DHT22;1815;50.950;6.920;2023-02-19T16:27:41;12.50;99.90
3602;DHT22;1815;50.950;6.920;2023-02-19T16:32:42;12.50;99.90
3602;DHT22;1815;50.950;6.920;2023-02-19T16:35:37;12.50;99.90
3602;DHT22;1815;50.950;6.920;2023-02-19T16:38:15;12.50;99.90
3602;DHT22;1815;50.950;6.920;2023-02-19T16:45:45;12.40;99.90
3602;DHT22;1815;50.950;6.920;2023-02-19T16:48:12;12.40;99.90
3602;DHT22;1815;50.950;6.920;2023-02-19T16:50:39;12.40;99.90
3602;DHT22;1815;50.950;6.920;2023-02-19T16:53:20;12.30;99.90
3602;DHT22;1815;50.950;6.920;2023-02-19T16:55:46;12.30;99.90
3602;DHT22;1815;50.950;6.920;2023-02-19T16:58:12;12.30;99.90
3602;DHT22;1815;50.950;6.920;2023-02-19T17:00:38;12.40;99.90
3602;DHT22;1815;50.950;6.920;2023-02-19T17:03:16;12.40;99.90
3602;DHT22;1815;50.950;6.920;2023-02-19T17:05:44;12.30;99.90
3602;DHT22;1815;50.950;6.920;2023-02-19T17:08:33;12.30;99.90
3602;DHT22;1815;50.950;6.920;2023-02-19T17:11:03;12.30;99.90
3602;DHT22;1815;50.950;6.920;2023-02-19T17:13:29;12.30;99.90
3602;DHT22;1815;50.950;6.920;2023-02-19T17:15:55;12.30;99.90
3602;DHT22;1815;50.950;6.920;2023-02-19T17:18:21;12.30;99.90
3602;DHT22;1815;50.950;6.920;2023-02-19T17:21:09;12.30;99.90
3602;DHT22;1815;50.950;6.920;2023-02-19T17:23:37;12.30;99.90
3602;DHT22;1815;50.950;6.920;2023-02-19T17:26:03;12.30;99.90
3602;DHT22;1815;50.950;6.920;2023-02-19T17:28:29;12.30;99.90
3602;DHT22;1815;50.950;6.920;2023-02-19T17:30:54;12.30;99.90
3602;DHT22;1815;50.950;6.920;2023-02-19T17:33:20;12.30;99.90
3602;DHT22;1815;50.950;6.920;2023-02-19T17:35:46;12.30;99.90
3602;DHT22;1815;50.950;6.920;2023-02-19T17:38:13;12.30;99.90
3602;DHT22;1815;50.950;6.920;2023-02-19T17:40:39;12.30;99.90
3602;DHT22;1815;50.950;6.920;2023-02-19T17:43:05;12.30;99.90
3602;DHT22;1815;50.950;6.920;2023-02-19T17:45:32;12.30;99.90
3602;DHT22;1815;50.950;6.920;2023-02-19T17:47:57;12.30;99.90
3602;DHT22;1815;50.950;6.920;2023-02-19T17:50:26;12.20;99.90
3602;DHT22;1815;50.950;6.920;2023-02-19T17:52:52;12.20;99.90
3602;DHT22;1815;50.950;6.920;2023-02-19T17:55:18;12.10;99.90
3602;DHT22;1815;50.950;6.920;2023-02-19T17:57:48;12.10;99.90
3602;DHT22;1815;50.950;6.920;2023-02-19T18:00:21;12.10;99.90
3602;DHT22;1815;50.950;6.920;2023-02-19T18:02:47;12.00;99.90
3602;DHT22;1815;50.950;6.920;2023-02-19T18:05:13;12.00;99.90
3602;DHT22;1815;50.950;6.920;2023-02-19T18:07:39;12.00;99.90
3602;DHT22;1815;50.950;6.920;2023-02-19T18:10:05;12.00;99.90
3602;DHT22;1815;50.950;6.920;2023-02-19T18:12:31;12.00;99.90
3602;DHT22;1815;50.950;6.920;2023-02-19T18:14:57;11.90;99.90
3602;DHT22;1815;50.950;6.920;2023-02-19T18:17:23;11.90;99.90
3602;DHT22;1815;50.950;6.920;2023-02-19T18:19:50;11.90;99.90
3602;DHT22;1815;50.950;6.920;2023-02-19T18:22:16;11.90;99.90
3602;DHT22;1815;50.950;6.920;2023-02-19T18:24:47;11.90;99.90
3602;DHT22;1815;50.950;6.920;2023-02-19T18:27:13;11.80;99.90
3602;DHT22;1815;50.950;6.920;2023-02-19T18:29:42;11.80;99.90
3602;DHT22;1815;50.950;6.920;2023-02-19T18:32:08;11.80;99.90
3602;DHT22;1815;50.950;6.920;2023-02-19T18:34:34;11.80;99.90
3602;DHT22;1815;50.950;6.920;2023-02-19T18:36:59;11.80;99.90
3602;DHT22;1815;50.950;6.920;2023-02-19T18:39:25;11.80;99.90
3602;DHT22;1815;50.950;6.920;2023-02-19T18:41:51;11.70;99.90
3602;DHT22;1815;50.950;6.920;2023-02-19T18:44:21;11.70;99.90